createdAt,value
2023-05-19T00:01:49.573Z,101740.63
2023-05-19T00:06:52.662Z,101729.97
2023-05-19T00:11:55.088Z,101725.59
2023-05-19T00:16:58.175Z,101719.66
2023-05-19T00:22:00.313Z,101720.53
2023-05-19T00:27:02.488Z,101710.47
2023-05-19T00:32:04.938Z,101706.25
2023-05-19T00:37:07.233Z,101695.69
2023-05-19T00:42:09.753Z,101700.69
2023-05-19T00:47:11.846Z,101693.78
2023-05-19T00:52:13.980Z,101685.91
2023-05-19T00:57:16.108Z,101684.94
2023-05-19T01:02:18.431Z,101669.94
2023-05-19T01:07:21.402Z,101670.69
2023-05-19T01:12:23.513Z,101666.41
2023-05-19T01:17:31.540Z,101661.94
2023-05-19T01:22:55.413Z,101658.44
2023-05-19T01:28:11.354Z,101647.66
2023-05-19T01:33:15.641Z,101649.47
2023-05-19T01:38:20.621Z,101657.47
2023-05-19T01:43:26.322Z,101655.66
2023-05-19T01:48:30.161Z,101638.72
2023-05-19T01:53:33.138Z,101629.75
2023-05-19T01:58:44.332Z,101634.47
2023-05-19T02:04:24.377Z,101640.63
2023-05-19T02:09:39.995Z,101635.41
2023-05-19T02:14:48.160Z,101635.31
2023-05-19T02:19:51.033Z,101617.63
2023-05-19T02:24:53.154Z,101615.94
2023-05-19T02:29:55.344Z,101613.41
2023-05-19T02:34:57.477Z,101600.72
2023-05-19T02:39:59.583Z,101602.63
2023-05-19T02:45:01.726Z,101598.38
2023-05-19T02:50:05.273Z,101601.78
2023-05-19T02:55:07.821Z,101598.16
2023-05-19T03:00:10.468Z,101607.09
2023-05-19T03:05:12.650Z,101599.25
2023-05-19T03:10:14.712Z,101602.75
2023-05-19T03:15:16.911Z,101607.22
2023-05-19T03:20:19.191Z,101612.22
2023-05-19T03:25:22.347Z,101604.22
2023-05-19T03:30:24.589Z,101592.09
2023-05-19T03:35:46.858Z,101582.63
2023-05-19T03:40:49.895Z,101588.69
2023-05-19T03:45:52.087Z,101599.56
2023-05-19T03:51:14.391Z,101584.19
2023-05-19T03:56:18.374Z,101595.19
2023-05-19T04:01:20.408Z,101611.50
2023-05-19T04:06:23.702Z,101606.84
2023-05-19T04:11:25.780Z,101613.72
2023-05-19T04:16:28.026Z,101608.66
2023-05-19T04:21:30.206Z,101616.63
2023-05-19T04:26:34.755Z,101616.50
2023-05-19T04:31:37.499Z,101612.03
2023-05-19T04:36:41.925Z,101609.50
2023-05-19T04:41:45.343Z,101599.91
2023-05-19T04:46:48.518Z,101605.84
2023-05-19T04:51:54.897Z,101606.09
2023-05-19T04:57:00.946Z,101606.09
2023-05-19T05:02:05.671Z,101604.38
2023-05-19T05:07:08.417Z,101602.38
2023-05-19T05:12:11.681Z,101606.84
2023-05-19T05:17:16.326Z,101596.41
2023-05-19T05:22:19.241Z,101612.25
2023-05-19T05:27:22.637Z,101605.22
2023-05-19T05:32:25.351Z,101599.91
2023-05-19T05:37:28.023Z,101587.56
2023-05-19T05:42:30.342Z,101589.38
2023-05-19T05:47:33.030Z,101586.00
2023-05-19T05:52:40.062Z,101566.38
2023-05-19T05:57:42.409Z,101573.53
2023-05-19T06:02:50.927Z,101581.38
2023-05-19T06:07:54.366Z,101579.56
2023-05-19T06:13:00.613Z,101577.56
2023-05-19T06:18:02.951Z,101575.34
2023-05-19T06:23:05.083Z,101568.06
2023-05-19T06:28:07.219Z,101579.56
2023-05-19T06:33:09.341Z,101572.69
2023-05-19T06:38:11.600Z,101590.56
2023-05-19T06:43:13.759Z,101599.31
2023-05-19T06:48:36.090Z,101589.25
2023-05-19T06:53:38.710Z,101582.47
2023-05-19T06:58:43.913Z,101580.78
2023-05-19T07:03:47.142Z,101582.34
2023-05-19T07:08:50.600Z,101586.69
2023-05-19T07:13:53.564Z,101587.66
2023-05-19T07:19:01.498Z,101595.66
2023-05-19T07:24:04.069Z,101599.06
2023-05-19T07:29:06.655Z,101606.09
2023-05-19T07:34:08.958Z,101598.31
2023-05-19T07:39:11.428Z,101601.09
2023-05-19T07:44:13.490Z,101608.84
2023-05-19T07:49:15.786Z,101611.41
2023-05-19T07:54:18.485Z,101610.66
2023-05-19T07:59:20.733Z,101606.28
2023-05-19T08:04:22.964Z,101610.81
2023-05-19T08:09:25.096Z,101602.56
2023-05-19T08:14:27.629Z,101608.00
2023-05-19T08:19:29.718Z,101606.44
2023-05-19T08:24:34.103Z,101605.47
2023-05-19T08:29:36.842Z,101608.84
2023-05-19T08:34:39.070Z,101604.38
2023-05-19T08:39:41.275Z,101612.38
2023-05-19T08:44:44.245Z,101607.78
2023-05-19T08:49:47.563Z,101617.59
2023-05-19T08:54:54.839Z,101622.91
2023-05-19T08:59:57.879Z,101607.16
2023-05-19T09:05:00.246Z,101603.53
2023-05-19T09:10:03.032Z,101607.03
2023-05-19T09:15:06.235Z,101600.66
2023-05-19T09:20:11.109Z,101605.22
2023-05-19T09:25:19.793Z,101609.81
2023-05-19T09:30:21.963Z,101604.38
2023-05-19T09:35:24.309Z,101578.25
2023-05-19T09:40:28.628Z,101571.97
2023-05-19T09:45:31.178Z,101568.72
2023-05-19T09:50:34.205Z,101560.09
2023-05-19T09:55:36.435Z,101576.47
2023-05-19T10:00:39.115Z,101561.22
2023-05-19T10:05:42.203Z,101548.13
2023-05-19T10:10:47.441Z,101541.44
2023-05-19T10:20:58.341Z,101533.00
2023-05-19T10:26:05.177Z,101546.22
2023-05-19T10:31:11.681Z,101531.31
2023-05-19T10:36:28.730Z,101538.34
2023-05-19T10:42:07.479Z,101535.81
2023-05-19T10:47:12.454Z,101519.84
2023-05-19T10:52:22.222Z,101524.31
2023-05-19T10:57:32.503Z,101516.81
2023-05-19T11:02:43.363Z,101514.91
2023-05-19T11:08:02.536Z,101504.69
2023-05-19T11:13:06.594Z,101498.53
2023-05-19T11:18:09.035Z,101501.59
2023-05-19T11:23:18.177Z,101498.94
2023-05-19T11:28:26.236Z,101487.53
2023-05-19T11:33:28.511Z,101483.28
2023-05-19T11:38:31.532Z,101481.09
2023-05-19T11:43:33.756Z,101482.69
2023-05-19T11:48:36.211Z,101485.63
2023-05-19T11:53:38.868Z,101475.94
2023-05-19T11:58:41.484Z,101464.53
2023-05-19T12:03:43.721Z,101457.03
2023-05-19T12:08:46.010Z,101450.75
2023-05-19T12:13:48.428Z,101448.34
2023-05-19T12:18:50.498Z,101451.81
2023-05-19T12:23:52.935Z,101446.28
2023-05-19T12:28:55.348Z,101438.28
2023-05-19T12:33:57.548Z,101444.69
2023-05-19T12:38:59.790Z,101442.16
2023-05-19T12:44:01.758Z,101440.34
2023-05-19T12:49:03.901Z,101450.88
2023-05-19T12:54:06.152Z,101453.66
2023-05-19T12:59:08.243Z,101449.16
2023-05-19T13:04:10.413Z,101451.81
2023-05-19T13:09:13.610Z,101436.84
2023-05-19T13:14:18.858Z,101440.47
2023-05-19T13:24:26.515Z,101440.34
2023-05-19T13:29:28.602Z,101440.22
2023-05-19T13:34:30.845Z,101428.13
2023-05-19T13:39:33.249Z,101411.88
2023-05-19T13:44:35.431Z,101424.50
2023-05-19T13:49:37.510Z,101421.72
2023-05-19T13:54:39.505Z,101405.59
2023-05-19T13:59:57.190Z,101419.38
2023-05-19T14:05:13.862Z,101410.44
2023-05-19T14:10:15.913Z,101404.91
2023-05-19T14:15:17.895Z,101411.88
2023-05-19T14:20:20.006Z,101408.53
2023-05-19T14:25:22.129Z,101414.91
2023-05-19T14:30:24.165Z,101396.06
2023-05-19T14:35:26.359Z,101402.22
2023-05-19T14:40:28.383Z,101408.41
2023-05-19T14:45:30.363Z,101411.41
2023-05-19T14:50:32.651Z,101395.44
2023-05-19T14:55:35.046Z,101402.56
2023-05-19T15:00:37.037Z,101404.03
2023-05-19T15:05:40.399Z,101402.47
2023-05-19T15:10:42.490Z,101386.84
2023-05-19T15:15:45.935Z,101390.97
2023-05-19T15:20:48.615Z,101390.84
2023-05-19T15:25:50.673Z,101382.00
2023-05-19T15:30:52.852Z,101393.72
2023-05-19T15:35:55.070Z,101395.44
2023-05-19T15:40:57.187Z,101388.28
2023-05-19T15:45:59.424Z,101377.53
2023-05-19T15:51:01.984Z,101396.28
2023-05-19T15:56:04.979Z,101387.56
2023-05-19T16:01:07.684Z,101387.34
2023-05-19T16:06:09.829Z,101383.81
2023-05-19T16:11:11.891Z,101377.66
2023-05-19T16:16:13.951Z,101371.72
2023-05-19T16:21:16.074Z,101375.09
2023-05-19T16:26:18.205Z,101375.09
2023-05-19T16:31:20.290Z,101368.69
2023-05-19T16:36:23.055Z,101363.00
2023-05-19T16:41:25.034Z,101360.81
2023-05-19T16:46:29.097Z,101370.63
2023-05-19T16:51:32.098Z,101353.44
2023-05-19T16:56:34.323Z,101367.25
2023-05-19T17:01:36.400Z,101374.50
2023-05-19T17:06:38.479Z,101372.69
2023-05-19T17:11:40.554Z,101363.59
2023-05-19T17:16:42.777Z,101365.28
2023-05-19T17:21:45.026Z,101355.38
2023-05-19T17:26:47.166Z,101359.38
2023-05-19T17:31:49.237Z,101369.19
2023-05-19T17:36:51.352Z,101367.38
2023-05-19T17:41:53.441Z,101361.94
2023-05-19T17:46:55.863Z,101364.44
2023-05-19T17:51:58.502Z,101361.19
2023-05-19T17:57:06.593Z,101364.06
2023-05-19T18:02:10.000Z,101358.91
2023-05-19T18:07:14.102Z,101358.03
2023-05-19T18:12:16.405Z,101361.56
2023-05-19T18:17:18.495Z,101361.56
2023-05-19T18:22:20.815Z,101358.03
2023-05-19T18:27:22.814Z,101373.75
2023-05-19T18:32:24.809Z,101380.19
2023-05-19T18:37:27.163Z,101381.16
2023-05-19T18:42:29.271Z,101379.22
2023-05-19T18:47:31.430Z,101390.69
2023-05-19T18:52:33.540Z,101380.19
2023-05-19T18:57:35.789Z,101379.09
2023-05-19T19:02:37.932Z,101374.59
2023-05-19T19:07:44.529Z,101380.78
2023-05-19T19:12:46.743Z,101383.44
2023-05-19T19:17:48.849Z,101373.91
2023-05-19T19:22:52.315Z,101379.22
2023-05-19T19:27:54.402Z,101381.88
2023-05-19T19:32:57.173Z,101380.78
2023-05-19T19:37:59.303Z,101386.09
2023-05-19T19:43:01.426Z,101398.56
2023-05-19T19:48:03.571Z,101398.81
2023-05-19T19:53:05.796Z,101416.25
2023-05-19T19:58:08.002Z,101416.97
2023-05-19T20:03:10.173Z,101417.19
2023-05-19T20:08:13.493Z,101410.19
2023-05-19T20:13:16.687Z,101416.34
2023-05-19T20:18:18.972Z,101410.91
2023-05-19T20:23:21.559Z,101422.41
2023-05-19T20:28:24.093Z,101428.69
2023-05-19T20:33:26.423Z,101414.31
2023-05-19T20:38:28.532Z,101441.78
2023-05-19T20:43:32.619Z,101424.22
2023-05-19T20:48:34.862Z,101436.78
2023-05-19T20:53:37.045Z,101436.78
2023-05-19T20:58:39.329Z,101439.34
2023-05-19T21:03:41.507Z,101434.03
2023-05-19T21:08:43.576Z,101442.97
2023-05-19T21:13:45.794Z,101424.34
2023-05-19T21:18:47.932Z,101435.72
2023-05-19T21:23:50.069Z,101426.16
2023-05-19T21:28:52.617Z,101422.53
2023-05-19T21:33:54.656Z,101415.50
2023-05-19T21:38:56.765Z,101419.63
2023-05-19T21:43:58.886Z,101416.84
2023-05-19T21:49:01.011Z,101417.19
2023-05-19T21:54:03.158Z,101402.34
2023-05-19T21:59:05.268Z,101401.84
2023-05-19T22:04:07.423Z,101407.88
2023-05-19T22:09:09.628Z,101395.69
2023-05-19T22:14:11.787Z,101396.00
2023-05-19T22:19:14.842Z,101401.97
2023-05-19T22:24:18.725Z,101398.19
2023-05-19T22:29:21.039Z,101402.94
2023-05-19T22:34:23.163Z,101400.25
2023-05-19T22:39:25.320Z,101398.47
2023-05-19T22:44:27.537Z,101387.69
2023-05-19T22:49:30.174Z,101386.97
2023-05-19T22:54:32.259Z,101383.34
2023-05-19T22:59:35.595Z,101371.94
2023-05-19T23:04:37.916Z,101380.69
2023-05-19T23:09:40.194Z,101355.75
2023-05-19T23:14:42.223Z,101364.44
2023-05-19T23:19:44.291Z,101364.81
2023-05-19T23:24:46.427Z,101356.59
2023-05-19T23:29:49.378Z,101339.03
2023-05-19T23:34:51.420Z,101336.75
2023-05-19T23:39:53.589Z,101341.97
2023-05-19T23:44:55.793Z,101318.00
2023-05-19T23:49:57.924Z,101327.56
2023-05-19T23:55:00.051Z,101305.19
